Terminal Aerodrome Forecast
Issued by NWS

Home | Current Version | Previous Version | Text Only | Print | Product List | Glossary On
Versions: 1 2 3 4 5 6 7 8 9 10 11 12 13 14 15 16 17 18 19 20 21 22 23 24 25 26
000
FTUS42 KGSP 221136
TAFHKY
TAF
KHKY 221136Z 2212/2312 18003KT P6SM SCT080
     FM221400 19005KT P6SM BKN070
     FM222200 18006KT P6SM VCSH BKN027
     FM230300 17008KT 2SM -SHRA BR OVC004 WS020/18040KT
     FM230800 20011KT 2SM -SHRA BR OVC005 PROB30 2308/2312 2SM TS BR
      OVC001CB=

USA.gov is the U.S. government's official web portal to all federal, state and local government web resources and services.